Time;durP1;ratioP1;P1;durP2;ratioP2;P2;SDS_P1;SDS_P2;PMS_P1;PMS_P2;Temp;Humidity;BMP_temperature;BMP_pressure;BME280_temperature;BME280_humidity;BME280_pressure;Samples;Min_cycle;Max_cycle;Signal;HPM_P1;HPM_P2
2022/07/11 00:01:06;;;;;;;21.20;20.07;;;;;;;;;;5094628;28;20410;-70
2022/07/11 00:03:33;;;;;;;21.07;19.87;;;;;;;;;;5094592;28;20456;-70
2022/07/11 00:06:01;;;;;;;20.17;19.13;;;;;;;;;;5094532;28;20443;-71
2022/07/11 00:08:29;;;;;;;21.30;19.90;;;;;;;;;;5094639;28;20410;-70
2022/07/11 00:10:57;;;;;;;21.57;20.20;;;;;;;;;;5094186;28;20441;-70
2022/07/11 00:13:24;;;;;;;20.67;19.57;;;;;;;;;;5094205;28;20441;-70
2022/07/11 00:15:51;;;;;;;21.30;20.20;;;;;;;;;;5094035;28;20443;-70
2022/07/11 00:18:19;;;;;;;20.53;19.40;;;;;;;;;;5093914;28;20893;-70
2022/07/11 00:20:46;;;;;;;20.50;19.50;;;;;;;;;;5094354;28;20811;-71
2022/07/11 00:23:13;;;;;;;20.87;19.83;;;;;;;;;;5094124;28;20448;-70
2022/07/11 00:25:42;;;;;;;20.07;18.80;;;;;;;;;;5093935;28;20434;-71
2022/07/11 00:28:09;;;;;;;20.60;19.40;;;;;;;;;;5094193;28;20454;-70
2022/07/11 00:30:36;;;;;;;20.93;19.83;;;;;;;;;;5093869;28;20405;-70
2022/07/11 00:33:04;;;;;;;19.70;18.70;;;;;;;;;;5094139;28;20504;-70
2022/07/11 00:35:31;;;;;;;20.57;19.50;;;;;;;;;;5094005;28;20535;-71
2022/07/11 00:37:59;;;;;;;19.80;18.70;;;;;;;;;;5093542;28;20464;-70
2022/07/11 00:40:26;;;;;;;19.93;18.87;;;;;;;;;;5093981;28;20741;-70
2022/07/11 00:42:55;;;;;;;21.03;19.93;;;;;;;;;;5093898;28;20485;-70
2022/07/11 00:45:22;;;;;;;19.80;18.73;;;;;;;;;;5093561;28;20465;-70
2022/07/11 00:47:49;;;;;;;20.50;19.50;;;;;;;;;;5093377;28;20487;-70
2022/07/11 00:50:17;;;;;;;20.80;19.70;;;;;;;;;;5093802;28;20422;-70
2022/07/11 00:52:44;;;;;;;21.00;19.90;;;;;;;;;;5093423;28;20449;-71
2022/07/11 00:55:12;;;;;;;21.17;20.00;;;;;;;;;;5093681;28;20819;-71
2022/07/11 00:57:40;;;;;;;21.73;20.37;;;;;;;;;;5093274;28;20420;-70
2022/07/11 01:00:11;;;;;;;19.97;18.77;;;;;;;;;;5093645;28;20416;-70
2022/07/11 01:02:38;;;;;;;20.20;19.27;;;;;;;;;;5093483;28;20485;-70
2022/07/11 01:05:06;;;;;;;20.70;19.67;;;;;;;;;;5093511;28;20409;-70
2022/07/11 01:07:33;;;;;;;21.17;20.10;;;;;;;;;;5093171;28;20842;-71
2022/07/11 01:10:00;;;;;;;21.60;20.60;;;;;;;;;;5092626;28;20891;-70
2022/07/11 01:12:28;;;;;;;21.63;20.20;;;;;;;;;;5093380;28;20438;-71
2022/07/11 01:14:56;;;;;;;20.37;19.27;;;;;;;;;;5093305;28;20478;-70
2022/07/11 01:17:25;;;;;;;21.60;20.20;;;;;;;;;;5093287;28;20407;-71
2022/07/11 01:19:52;;;;;;;21.47;20.17;;;;;;;;;;5093061;28;20731;-70
2022/07/11 01:22:22;;;;;;;20.97;19.97;;;;;;;;;;5093046;28;20412;-70
2022/07/11 01:24:51;;;;;;;21.20;19.90;;;;;;;;;;5093301;28;20408;-71
2022/07/11 01:27:19;;;;;;;20.77;19.67;;;;;;;;;;5092834;28;20893;-71
2022/07/11 01:29:47;;;;;;;22.10;20.80;;;;;;;;;;5092858;28;20947;-70
2022/07/11 01:32:14;;;;;;;21.40;20.20;;;;;;;;;;5092811;28;20805;-71
2022/07/11 01:34:41;;;;;;;21.60;20.30;;;;;;;;;;5093198;28;20417;-70
2022/07/11 01:37:09;;;;;;;22.07;20.90;;;;;;;;;;5093011;28;20409;-70
2022/07/11 01:39:36;;;;;;;21.97;20.83;;;;;;;;;;5092633;28;20455;-71
2022/07/11 01:42:06;;;;;;;21.77;20.63;;;;;;;;;;5093095;28;20444;-71
2022/07/11 01:44:33;;;;;;;23.00;21.70;;;;;;;;;;5092912;28;20454;-71
2022/07/11 01:47:00;;;;;;;23.13;21.87;;;;;;;;;;5092756;28;20424;-70
2022/07/11 01:49:29;;;;;;;23.63;22.03;;;;;;;;;;5092585;28;20417;-70
2022/07/11 01:51:57;;;;;;;22.73;21.50;;;;;;;;;;5093070;28;20447;-71
2022/07/11 01:54:24;;;;;;;24.40;22.87;;;;;;;;;;5092944;28;20410;-70
2022/07/11 01:56:51;;;;;;;23.87;22.47;;;;;;;;;;5092835;28;20445;-71
2022/07/11 01:59:20;;;;;;;24.07;22.63;;;;;;;;;;5092928;28;20496;-71
2022/07/11 02:01:47;;;;;;;23.10;21.83;;;;;;;;;;5092385;28;20812;-71
2022/07/11 02:04:15;;;;;;;25.60;23.90;;;;;;;;;;5092444;28;20463;-70
2022/07/11 02:06:42;;;;;;;25.93;24.23;;;;;;;;;;5092450;28;20416;-71
2022/07/11 02:09:09;;;;;;;26.50;24.73;;;;;;;;;;5092754;28;20408;-70
2022/07/11 02:11:36;;;;;;;25.47;23.60;;;;;;;;;;5092550;28;20507;-70
2022/07/11 02:14:04;;;;;;;24.90;23.27;;;;;;;;;;5092353;28;20477;-70
2022/07/11 02:16:32;;;;;;;25.50;23.77;;;;;;;;;;5092394;28;20742;-70
2022/07/11 02:19:00;;;;;;;25.60;24.00;;;;;;;;;;5092561;28;20410;-71
2022/07/11 02:21:27;;;;;;;25.60;24.00;;;;;;;;;;5094305;28;20416;-71
2022/07/11 02:23:54;;;;;;;26.10;24.30;;;;;;;;;;5096566;28;20535;-70
2022/07/11 02:26:22;;;;;;;26.60;24.60;;;;;;;;;;5096448;28;20448;-71
2022/07/11 02:28:49;;;;;;;26.67;24.77;;;;;;;;;;5096221;28;20450;-70
2022/07/11 02:31:16;;;;;;;26.67;24.43;;;;;;;;;;5096124;28;20776;-71
2022/07/11 02:33:45;;;;;;;27.73;25.70;;;;;;;;;;5096431;28;20438;-70
2022/07/11 02:36:12;;;;;;;28.17;26.37;;;;;;;;;;5096289;28;20439;-71
2022/07/11 02:38:40;;;;;;;27.17;25.17;;;;;;;;;;5095856;28;20450;-71
2022/07/11 02:41:07;;;;;;;28.33;26.43;;;;;;;;;;5096295;28;20779;-71
2022/07/11 02:43:34;;;;;;;28.43;26.33;;;;;;;;;;5096126;28;20444;-70
2022/07/11 02:46:02;;;;;;;26.97;25.17;;;;;;;;;;5095874;28;20916;-71
2022/07/11 02:48:29;;;;;;;27.30;25.50;;;;;;;;;;5095928;28;20420;-71
2022/07/11 02:50:57;;;;;;;27.77;25.77;;;;;;;;;;5095688;28;20432;-71
2022/07/11 02:53:25;;;;;;;27.33;25.63;;;;;;;;;;5096047;28;20419;-71
2022/07/11 02:55:52;;;;;;;27.77;25.97;;;;;;;;;;5095594;28;20450;-71
2022/07/11 02:58:20;;;;;;;28.40;26.30;;;;;;;;;;5095983;28;20400;-71
2022/07/11 03:00:47;;;;;;;28.30;26.60;;;;;;;;;;5095898;28;20425;-70
2022/07/11 03:03:14;;;;;;;28.30;26.50;;;;;;;;;;5095832;28;20444;-71
2022/07/11 03:05:41;;;;;;;29.00;26.90;;;;;;;;;;5095792;28;20454;-70
2022/07/11 03:08:10;;;;;;;27.27;25.20;;;;;;;;;;5095780;28;20426;-71
2022/07/11 03:10:38;;;;;;;29.70;27.47;;;;;;;;;;5095723;28;20543;-70
2022/07/11 03:13:06;;;;;;;26.67;24.87;;;;;;;;;;5095640;28;20461;-71
2022/07/11 03:15:33;;;;;;;29.13;27.13;;;;;;;;;;5095146;28;20476;-71
2022/07/11 03:18:00;;;;;;;29.60;27.33;;;;;;;;;;5095088;28;20441;-70
2022/07/11 03:20:28;;;;;;;29.53;27.53;;;;;;;;;;5095513;28;20411;-70
2022/07/11 03:22:55;;;;;;;29.57;27.50;;;;;;;;;;5095079;28;20430;-71
2022/07/11 03:25:24;;;;;;;29.97;27.83;;;;;;;;;;5094905;28;20483;-71
2022/07/11 03:27:51;;;;;;;29.00;27.10;;;;;;;;;;5094976;28;20441;-71
2022/07/11 03:30:19;;;;;;;29.33;27.03;;;;;;;;;;5094889;28;20894;-71
2022/07/11 03:32:46;;;;;;;29.30;27.30;;;;;;;;;;5094556;28;20781;-71
2022/07/11 03:37:58;;;;;;;28.97;26.87;;;;;;;;;;5094757;28;20501;-71
2022/07/11 03:40:27;;;;;;;30.47;27.80;;;;;;;;;;5095060;28;20435;-70
2022/07/11 03:42:54;;;;;;;31.40;29.00;;;;;;;;;;5095092;28;20512;-70
2022/07/11 03:45:21;;;;;;;32.43;30.07;;;;;;;;;;5094931;28;20459;-71
2022/07/11 03:47:49;;;;;;;31.80;29.53;;;;;;;;;;5094565;28;20928;-71
2022/07/11 03:50:16;;;;;;;31.20;28.47;;;;;;;;;;5094920;28;20443;-71
2022/07/11 03:52:44;;;;;;;31.63;28.97;;;;;;;;;;5094613;28;21006;-70
2022/07/11 03:55:11;;;;;;;30.93;28.50;;;;;;;;;;5094800;28;20429;-70
2022/07/11 03:57:40;;;;;;;31.57;28.50;;;;;;;;;;5094450;28;20434;-70
2022/07/11 04:00:08;;;;;;;32.03;29.43;;;;;;;;;;5094785;28;20465;-71
2022/07/11 04:02:36;;;;;;;29.40;27.40;;;;;;;;;;5094407;28;20414;-70
2022/07/11 04:05:03;;;;;;;30.87;28.50;;;;;;;;;;5094139;28;20464;-70
2022/07/11 04:07:30;;;;;;;31.27;28.97;;;;;;;;;;5094609;28;20414;-72
2022/07/11 04:09:58;;;;;;;32.63;30.10;;;;;;;;;;5094206;28;20442;-72
2022/07/11 04:12:25;;;;;;;31.63;28.93;;;;;;;;;;5094280;28;20942;-72
2022/07/11 04:14:54;;;;;;;30.53;28.40;;;;;;;;;;5094310;28;20469;-70
2022/07/11 04:17:21;;;;;;;32.00;29.70;;;;;;;;;;5094293;28;20436;-71
2022/07/11 04:19:49;;;;;;;30.83;28.60;;;;;;;;;;5094404;28;20414;-72
2022/07/11 04:22:17;;;;;;;32.40;30.03;;;;;;;;;;5093916;28;20938;-72
2022/07/11 04:24:44;;;;;;;31.53;29.13;;;;;;;;;;5094245;28;20490;-72
2022/07/11 04:27:11;;;;;;;32.70;29.87;;;;;;;;;;5094252;28;20439;-71
2022/07/11 04:29:38;;;;;;;32.00;29.53;;;;;;;;;;5094237;28;20525;-71
2022/07/11 04:32:08;;;;;;;29.00;26.73;;;;;;;;;;5094092;28;20417;-71
2022/07/11 04:34:35;;;;;;;29.47;27.27;;;;;;;;;;5093753;28;20445;-73
2022/07/11 04:37:03;;;;;;;31.40;29.30;;;;;;;;;;5093969;28;20410;-72
2022/07/11 04:39:32;;;;;;;30.70;28.40;;;;;;;;;;5093612;28;20473;-72
2022/07/11 04:42:00;;;;;;;30.83;28.73;;;;;;;;;;5093454;28;20458;-71
2022/07/11 04:44:28;;;;;;;31.90;29.60;;;;;;;;;;5093098;28;20859;-72
2022/07/11 04:46:55;;;;;;;31.60;29.20;;;;;;;;;;5093823;28;20519;-72
2022/07/11 04:49:24;;;;;;;32.27;29.47;;;;;;;;;;5093391;28;20906;-72
2022/07/11 04:51:51;;;;;;;33.57;31.17;;;;;;;;;;5093758;28;20410;-72
2022/07/11 04:54:18;;;;;;;31.17;28.93;;;;;;;;;;5093800;28;20687;-72
2022/07/11 04:56:46;;;;;;;32.07;29.80;;;;;;;;;;5093597;28;20443;-72
2022/07/11 04:59:13;;;;;;;32.33;29.90;;;;;;;;;;5093636;28;20436;-72
2022/07/11 05:01:40;;;;;;;33.30;30.70;;;;;;;;;;5093573;28;20408;-72
2022/07/11 05:04:08;;;;;;;31.90;29.80;;;;;;;;;;5093477;28;20452;-72
2022/07/11 05:06:36;;;;;;;32.07;29.57;;;;;;;;;;5093136;28;20416;-72
2022/07/11 05:09:07;;;;;;;33.70;31.23;;;;;;;;;;5093130;28;20946;-72
2022/07/11 05:11:35;;;;;;;31.47;29.37;;;;;;;;;;5093505;28;20413;-73
2022/07/11 05:14:02;;;;;;;36.17;33.37;;;;;;;;;;5093350;28;20452;-71
2022/07/11 05:16:30;;;;;;;32.70;30.50;;;;;;;;;;5092972;28;20421;-73
2022/07/11 05:18:57;;;;;;;35.27;32.83;;;;;;;;;;5092800;28;20458;-72
2022/07/11 05:21:24;;;;;;;34.90;32.23;;;;;;;;;;5093250;28;20409;-73
2022/07/11 05:23:53;;;;;;;30.37;28.23;;;;;;;;;;5092841;28;20449;-72
2022/07/11 05:26:21;;;;;;;31.83;29.27;;;;;;;;;;5092841;28;20404;-72
2022/07/11 05:28:48;;;;;;;31.40;29.20;;;;;;;;;;5093249;28;20465;-73
2022/07/11 05:31:16;;;;;;;30.70;28.70;;;;;;;;;;5093111;28;20489;-73
2022/07/11 05:33:43;;;;;;;32.40;29.70;;;;;;;;;;5092783;28;20914;-72
2022/07/11 05:36:10;;;;;;;30.70;28.60;;;;;;;;;;5093065;28;20439;-73
2022/07/11 05:38:37;;;;;;;31.57;29.30;;;;;;;;;;5092640;28;20481;-72
2022/07/11 05:41:06;;;;;;;27.57;25.77;;;;;;;;;;5092783;28;20414;-73
2022/07/11 05:43:34;;;;;;;25.00;23.40;;;;;;;;;;5093086;28;20416;-73
2022/07/11 05:46:05;;;;;;;24.30;23.00;;;;;;;;;;5092919;28;20465;-73
2022/07/11 05:48:32;;;;;;;23.90;22.70;;;;;;;;;;5092778;28;20409;-73
2022/07/11 05:50:59;;;;;;;22.17;21.10;;;;;;;;;;5092721;28;20977;-72
2022/07/11 05:53:27;;;;;;;22.93;21.70;;;;;;;;;;5092940;28;20408;-72
2022/07/11 05:55:54;;;;;;;22.50;21.40;;;;;;;;;;5095136;28;20850;-72
2022/07/11 05:58:23;;;;;;;21.17;20.13;;;;;;;;;;5097182;28;20441;-72
2022/07/11 06:00:50;;;;;;;21.00;19.97;;;;;;;;;;5097062;28;20857;-72
2022/07/11 06:03:18;;;;;;;20.43;19.43;;;;;;;;;;5097009;28;20404;-73
2022/07/11 06:05:45;;;;;;;20.50;19.60;;;;;;;;;;5096838;28;20483;-72
2022/07/11 06:10:57;;;;;;;21.30;20.20;;;;;;;;;;5096629;28;20404;-72
2022/07/11 06:13:26;;;;;;;20.23;19.23;;;;;;;;;;5096449;28;20440;-72
2022/07/11 06:15:53;;;;;;;20.50;19.50;;;;;;;;;;5096371;28;20449;-73
2022/07/11 06:18:21;;;;;;;20.43;19.47;;;;;;;;;;5096336;28;20490;-72
2022/07/11 06:20:49;;;;;;;19.87;18.87;;;;;;;;;;5096775;28;20465;-72
2022/07/11 06:23:16;;;;;;;19.10;18.20;;;;;;;;;;5096597;28;20466;-72
2022/07/11 06:25:43;;;;;;;19.23;18.20;;;;;;;;;;5096097;28;20464;-73
2022/07/11 06:28:11;;;;;;;18.97;18.17;;;;;;;;;;5096254;28;20945;-72
2022/07/11 06:30:39;;;;;;;17.93;16.93;;;;;;;;;;5096527;28;20419;-74
2022/07/11 06:33:07;;;;;;;18.00;17.10;;;;;;;;;;5096336;28;20432;-72
2022/07/11 06:35:34;;;;;;;17.93;17.13;;;;;;;;;;5096350;28;20442;-72
2022/07/11 06:38:01;;;;;;;18.33;17.47;;;;;;;;;;5096099;28;20569;-72
2022/07/11 06:40:29;;;;;;;19.03;18.00;;;;;;;;;;5095980;28;20420;-74
2022/07/11 06:42:56;;;;;;;18.77;17.77;;;;;;;;;;5096237;28;20940;-72
2022/07/11 06:45:23;;;;;;;19.43;18.43;;;;;;;;;;5096147;28;20495;-72
2022/07/11 06:47:53;;;;;;;18.87;17.90;;;;;;;;;;5096057;28;20414;-72
2022/07/11 06:50:20;;;;;;;19.53;18.30;;;;;;;;;;5095845;28;20414;-72
2022/07/11 06:52:48;;;;;;;19.80;18.60;;;;;;;;;;5095716;28;20440;-72
2022/07/11 06:55:15;;;;;;;19.17;18.17;;;;;;;;;;5095663;28;20447;-73
2022/07/11 06:57:42;;;;;;;19.27;18.20;;;;;;;;;;5095698;28;20882;-72
2022/07/11 07:00:11;;;;;;;19.57;18.57;;;;;;;;;;5095663;28;20898;-72
2022/07/11 07:02:38;;;;;;;19.53;18.30;;;;;;;;;;5095917;28;20412;-72
2022/07/11 07:05:08;;;;;;;19.90;19.00;;;;;;;;;;5095426;28;20576;-72
2022/07/11 07:07:35;;;;;;;18.97;17.97;;;;;;;;;;5094692;28;20415;-73
2022/07/11 07:10:03;;;;;;;19.30;18.07;;;;;;;;;;5095706;28;20412;-72
2022/07/11 07:12:30;;;;;;;18.57;17.67;;;;;;;;;;5095668;28;20414;-72
2022/07/11 07:14:57;;;;;;;20.23;19.00;;;;;;;;;;5095520;28;20457;-72
2022/07/11 07:17:25;;;;;;;20.47;19.20;;;;;;;;;;5095195;28;20412;-71
2022/07/11 07:19:52;;;;;;;20.40;18.77;;;;;;;;;;5095220;28;20496;-72
2022/07/11 07:22:20;;;;;;;18.93;18.03;;;;;;;;;;5095321;28;20920;-71
2022/07/11 07:24:48;;;;;;;18.80;17.90;;;;;;;;;;5095022;28;20460;-71
2022/07/11 07:27:15;;;;;;;19.30;18.20;;;;;;;;;;5095099;28;20418;-71
2022/07/11 07:29:42;;;;;;;18.93;18.03;;;;;;;;;;5095359;28;20408;-72
2022/07/11 07:32:10;;;;;;;18.30;17.50;;;;;;;;;;5095300;28;20423;-72
2022/07/11 07:34:37;;;;;;;19.17;18.17;;;;;;;;;;5092947;28;20421;-72
2022/07/11 07:37:05;;;;;;;18.13;17.33;;;;;;;;;;5095321;28;20415;-72
2022/07/11 07:39:33;;;;;;;18.50;17.60;;;;;;;;;;5094723;28;20475;-72
2022/07/11 07:42:00;;;;;;;17.80;17.00;;;;;;;;;;5095179;28;20447;-72
2022/07/11 07:44:28;;;;;;;18.03;17.23;;;;;;;;;;5094994;28;20445;-72
2022/07/11 07:46:56;;;;;;;18.83;17.83;;;;;;;;;;5094762;28;20490;-72
2022/07/11 07:49:23;;;;;;;19.07;18.17;;;;;;;;;;5094871;28;20750;-72
2022/07/11 07:51:50;;;;;;;18.10;17.30;;;;;;;;;;5095023;28;20415;-73
2022/07/11 07:54:18;;;;;;;18.80;17.67;;;;;;;;;;5094598;28;20431;-72
2022/07/11 07:56:47;;;;;;;17.87;16.93;;;;;;;;;;5094425;28;20453;-72
2022/07/11 07:59:14;;;;;;;18.80;17.90;;;;;;;;;;5094774;28;20416;-72
2022/07/11 08:01:42;;;;;;;17.83;17.03;;;;;;;;;;5094708;28;20444;-72
2022/07/11 08:04:09;;;;;;;17.53;16.63;;;;;;;;;;5094754;28;20494;-72
2022/07/11 08:06:37;;;;;;;17.50;16.70;;;;;;;;;;5094522;28;20454;-72
2022/07/11 08:09:05;;;;;;;18.07;17.17;;;;;;;;;;5094509;28;20411;-72
2022/07/11 08:11:32;;;;;;;17.90;17.00;;;;;;;;;;5094238;28;20449;-72
2022/07/11 08:14:01;;;;;;;18.37;17.47;;;;;;;;;;5094472;28;20836;-73
2022/07/11 08:16:29;;;;;;;18.30;17.40;;;;;;;;;;5094455;28;20447;-72
2022/07/11 08:18:57;;;;;;;17.83;16.93;;;;;;;;;;5093161;28;20468;-73
2022/07/11 08:21:25;;;;;;;18.00;17.20;;;;;;;;;;5094341;28;20491;-72
2022/07/11 08:23:52;;;;;;;17.73;16.93;;;;;;;;;;5094323;28;20430;-72
2022/07/11 08:26:19;;;;;;;17.87;17.00;;;;;;;;;;5075633;28;20485;-72
2022/07/11 08:28:47;;;;;;;17.93;17.13;;;;;;;;;;5073684;28;20430;-72
2022/07/11 08:31:15;;;;;;;17.20;16.30;;;;;;;;;;5073855;28;20460;-71
2022/07/11 08:33:43;;;;;;;18.47;17.40;;;;;;;;;;5073885;28;20409;-72
2022/07/11 08:36:10;;;;;;;17.90;17.10;;;;;;;;;;5073740;28;20414;-72
2022/07/11 08:38:39;;;;;;;18.20;17.30;;;;;;;;;;5073448;28;20481;-72
2022/07/11 08:41:06;;;;;;;18.70;17.80;;;;;;;;;;5073747;28;20444;-72
2022/07/11 08:43:33;;;;;;;18.70;17.80;;;;;;;;;;5073326;28;20401;-72
2022/07/11 08:46:01;;;;;;;18.27;17.40;;;;;;;;;;5091126;28;20481;-73
2022/07/11 08:48:31;;;;;;;19.17;18.23;;;;;;;;;;5093232;28;20790;-72
2022/07/11 08:51:00;;;;;;;18.17;17.37;;;;;;;;;;5093566;28;20427;-71
2022/07/11 08:53:28;;;;;;;19.30;18.30;;;;;;;;;;5093559;28;20468;-71
2022/07/11 08:55:55;;;;;;;17.93;17.13;;;;;;;;;;5093656;28;20438;-71
2022/07/11 08:58:23;;;;;;;18.77;17.87;;;;;;;;;;5093683;28;20446;-71
2022/07/11 09:00:51;;;;;;;18.97;18.07;;;;;;;;;;5093544;28;20413;-72
2022/07/11 09:03:18;;;;;;;18.30;17.40;;;;;;;;;;5093650;28;20438;-71
2022/07/11 09:05:47;;;;;;;18.03;17.23;;;;;;;;;;5093020;28;20449;-71
2022/07/11 09:08:15;;;;;;;18.13;17.23;;;;;;;;;;5093311;28;20438;-72
2022/07/11 09:10:42;;;;;;;18.13;17.33;;;;;;;;;;5093564;28;20412;-73
2022/07/11 09:13:11;;;;;;;18.70;17.80;;;;;;;;;;5093137;28;20448;-72
2022/07/11 09:15:39;;;;;;;19.10;18.00;;;;;;;;;;5093370;28;20449;-70
2022/07/11 09:18:07;;;;;;;18.80;17.90;;;;;;;;;;5082833;28;20443;-73
2022/07/11 09:26:30;;;;;;;19.07;18.07;;;;;;;;;;5072578;28;20633;-77
2022/07/11 09:29:01;;;;;;;19.20;18.17;;;;;;;;;;5073061;28;20795;-74
2022/07/11 09:31:29;;;;;;;19.10;18.10;;;;;;;;;;5072587;28;20432;-73
2022/07/11 09:34:04;;;;;;;18.83;17.90;;;;;;;;;;5072637;28;20527;-73
2022/07/11 09:36:54;;;;;;;19.53;18.63;;;;;;;;;;5072869;28;20458;-72
2022/07/11 09:39:27;;;;;;;19.80;18.90;;;;;;;;;;5072107;28;20572;-73
2022/07/11 09:42:04;;;;;;;19.00;18.10;;;;;;;;;;5072771;28;20470;-72
2022/07/11 09:44:36;;;;;;;19.57;18.57;;;;;;;;;;5072509;28;20785;-71
2022/07/11 09:47:12;;;;;;;19.13;18.03;;;;;;;;;;5079859;28;20486;-71
2022/07/11 09:49:46;;;;;;;19.00;18.10;;;;;;;;;;5092254;28;20478;-71
2022/07/11 09:52:16;;;;;;;19.50;18.40;;;;;;;;;;5092350;28;20911;-71
2022/07/11 09:55:06;;;;;;;19.43;18.50;;;;;;;;;;5092811;28;20518;-72
2022/07/11 09:57:37;;;;;;;19.60;18.70;;;;;;;;;;5092324;28;20438;-71
2022/07/11 10:00:06;;;;;;;19.03;18.03;;;;;;;;;;5092190;28;20501;-73
2022/07/11 10:02:49;;;;;;;19.80;18.73;;;;;;;;;;5092457;28;20439;-71
2022/07/11 10:05:22;;;;;;;19.73;18.77;;;;;;;;;;5091837;28;20880;-71
2022/07/11 10:07:51;;;;;;;19.30;18.30;;;;;;;;;;5092167;28;20414;-71
2022/07/11 10:10:21;;;;;;;18.57;17.60;;;;;;;;;;5091780;28;20557;-72
2022/07/11 10:12:50;;;;;;;19.07;18.17;;;;;;;;;;5092106;28;20445;-71
2022/07/11 10:15:28;;;;;;;19.03;18.00;;;;;;;;;;5092128;28;20453;-71
2022/07/11 10:18:05;;;;;;;19.33;18.43;;;;;;;;;;5091718;28;20476;-71
2022/07/11 10:20:36;;;;;;;19.30;18.30;;;;;;;;;;5092084;28;20760;-71
2022/07/11 10:23:15;;;;;;;19.60;18.60;;;;;;;;;;5091774;28;20556;-74
2022/07/11 10:25:53;;;;;;;19.27;18.37;;;;;;;;;;5091725;28;20830;-72
2022/07/11 10:28:37;;;;;;;19.27;18.37;;;;;;;;;;5092179;28;20463;-72
2022/07/11 10:31:21;;;;;;;19.03;18.13;;;;;;;;;;5091898;28;20423;-72
2022/07/11 10:34:10;;;;;;;18.80;17.90;;;;;;;;;;5091601;28;20409;-72
2022/07/11 10:36:44;;;;;;;19.03;18.03;;;;;;;;;;5090996;28;20446;-72
2022/07/11 10:39:28;;;;;;;20.07;18.97;;;;;;;;;;5091047;28;20453;-72
2022/07/11 10:42:04;;;;;;;18.53;17.63;;;;;;;;;;5092084;28;20441;-74
2022/07/11 10:44:52;;;;;;;19.00;18.00;;;;;;;;;;5095130;28;20405;-71
2022/07/11 10:47:37;;;;;;;18.83;17.63;;;;;;;;;;5094873;28;20453;-71
2022/07/11 10:50:10;;;;;;;19.30;18.30;;;;;;;;;;5094965;28;20446;-71
2022/07/11 10:52:42;;;;;;;19.30;18.30;;;;;;;;;;5095362;28;20426;-71
2022/07/11 10:55:20;;;;;;;18.93;18.03;;;;;;;;;;5093967;28;20917;-71
2022/07/11 10:58:00;;;;;;;19.30;18.30;;;;;;;;;;5094970;28;20436;-70
2022/07/11 11:00:32;;;;;;;19.00;18.00;;;;;;;;;;5094877;28;20748;-71
2022/07/11 11:03:10;;;;;;;18.47;17.57;;;;;;;;;;5094732;28;20439;-70
2022/07/11 11:05:47;;;;;;;19.53;18.53;;;;;;;;;;5094664;28;20404;-71
2022/07/11 11:08:36;;;;;;;19.07;18.17;;;;;;;;;;5094938;28;20408;-71
2022/07/11 11:11:04;;;;;;;19.70;18.70;;;;;;;;;;5095287;28;20845;-71
2022/07/11 11:13:38;;;;;;;19.03;18.03;;;;;;;;;;5095669;28;20477;-71
2022/07/11 11:16:22;;;;;;;19.67;18.67;;;;;;;;;;5095120;28;20442;-73
2022/07/11 11:18:53;;;;;;;19.40;18.30;;;;;;;;;;5074806;28;20986;-78
2022/07/11 11:21:21;;;;;;;19.63;18.63;;;;;;;;;;5075427;28;20834;-71
2022/07/11 11:24:08;;;;;;;19.20;18.20;;;;;;;;;;5074569;28;20437;-71
2022/07/11 11:26:43;;;;;;;18.67;17.70;;;;;;;;;;5074975;28;20484;-73
2022/07/11 11:29:12;;;;;;;19.90;19.00;;;;;;;;;;5074704;28;20434;-71
2022/07/11 11:31:39;;;;;;;19.37;18.37;;;;;;;;;;5074658;28;20933;-73
2022/07/11 11:34:06;;;;;;;19.83;18.93;;;;;;;;;;5073953;28;20432;-71
2022/07/11 11:36:34;;;;;;;18.70;17.80;;;;;;;;;;5074776;28;20837;-71
2022/07/11 11:39:01;;;;;;;19.43;18.33;;;;;;;;;;5074471;28;20820;-71
2022/07/11 11:41:29;;;;;;;20.23;19.03;;;;;;;;;;5074403;28;21076;-72
2022/07/11 11:43:57;;;;;;;19.40;18.40;;;;;;;;;;5074696;28;20459;-72
2022/07/11 11:46:27;;;;;;;20.20;19.20;;;;;;;;;;5076658;28;20550;-72
2022/07/11 11:48:57;;;;;;;19.60;18.70;;;;;;;;;;5094864;28;20450;-72
2022/07/11 11:51:25;;;;;;;20.43;19.43;;;;;;;;;;5094302;28;20463;-72
2022/07/11 11:53:53;;;;;;;20.07;19.07;;;;;;;;;;5094187;28;20443;-72
2022/07/11 11:56:23;;;;;;;19.93;18.93;;;;;;;;;;5094808;28;20432;-72
2022/07/11 11:58:51;;;;;;;20.70;19.60;;;;;;;;;;5094348;28;20880;-73
2022/07/11 12:01:21;;;;;;;19.63;18.63;;;;;;;;;;5094772;28;20439;-72
2022/07/11 12:03:52;;;;;;;20.70;19.60;;;;;;;;;;5094461;28;20414;-72
2022/07/11 12:06:22;;;;;;;20.20;19.20;;;;;;;;;;5094180;28;20943;-72
2022/07/11 12:08:50;;;;;;;20.30;19.30;;;;;;;;;;5094580;28;20447;-71
2022/07/11 12:11:17;;;;;;;19.80;18.80;;;;;;;;;;5094184;28;20416;-72
2022/07/11 12:13:45;;;;;;;20.80;19.70;;;;;;;;;;5094184;28;20976;-71
2022/07/11 12:19:02;;;;;;;20.37;19.37;;;;;;;;;;5094084;28;20499;-72
2022/07/11 12:21:30;;;;;;;19.53;18.50;;;;;;;;;;5093941;28;20439;-72
2022/07/11 12:23:58;;;;;;;20.43;19.43;;;;;;;;;;5093985;28;20435;-73
2022/07/11 12:26:25;;;;;;;20.50;19.50;;;;;;;;;;5093876;28;20976;-72
2022/07/11 12:29:07;;;;;;;21.30;20.20;;;;;;;;;;5094051;28;20451;-72
2022/07/11 12:31:47;;;;;;;20.20;18.80;;;;;;;;;;5094289;28;20493;-71
2022/07/11 12:34:18;;;;;;;20.50;19.40;;;;;;;;;;5093956;28;20807;-82
2022/07/11 12:36:46;;;;;;;20.70;19.70;;;;;;;;;;5093962;28;20439;-73
2022/07/11 12:39:24;;;;;;;20.53;19.53;;;;;;;;;;5093233;28;20478;-72
2022/07/11 12:41:52;;;;;;;20.37;19.33;;;;;;;;;;5093518;28;20422;-72
2022/07/11 12:47:08;;;;;;;20.30;19.30;;;;;;;;;;5093379;28;20494;-75
2022/07/11 12:49:39;;;;;;;20.83;19.80;;;;;;;;;;5093340;28;20417;-73
2022/07/11 12:52:07;;;;;;;19.50;18.50;;;;;;;;;;5093687;28;20444;-75
2022/07/11 12:54:34;;;;;;;19.63;18.63;;;;;;;;;;5093615;28;20922;-73
2022/07/11 12:57:03;;;;;;;20.47;19.37;;;;;;;;;;5093452;28;20406;-72
2022/07/11 12:59:31;;;;;;;19.40;18.50;;;;;;;;;;5093661;28;20409;-71
2022/07/11 13:01:59;;;;;;;19.97;18.97;;;;;;;;;;5093616;28;20756;-71
2022/07/11 13:04:47;;;;;;;19.63;18.73;;;;;;;;;;5092996;28;20438;-71
2022/07/11 13:10:14;;;;;;;20.47;19.37;;;;;;;;;;5093283;28;20464;-71
2022/07/11 13:12:42;;;;;;;20.20;19.20;;;;;;;;;;5093300;28;20501;-71
2022/07/11 13:15:10;;;;;;;20.13;19.03;;;;;;;;;;5093420;28;20435;-71
2022/07/11 13:17:39;;;;;;;21.23;20.03;;;;;;;;;;5092915;28;20463;-71
2022/07/11 13:20:07;;;;;;;20.27;19.07;;;;;;;;;;5093352;28;20434;-71
2022/07/11 13:22:36;;;;;;;20.10;19.10;;;;;;;;;;5093418;28;20425;-71
2022/07/11 13:25:04;;;;;;;19.43;18.33;;;;;;;;;;5093218;28;20464;-71
2022/07/11 13:27:32;;;;;;;19.50;18.50;;;;;;;;;;5092929;28;20982;-70
2022/07/11 13:29:59;;;;;;;20.10;19.10;;;;;;;;;;5092869;28;20935;-71
2022/07/11 13:32:27;;;;;;;19.97;19.00;;;;;;;;;;5092928;28;20422;-71
2022/07/11 13:34:54;;;;;;;20.80;19.70;;;;;;;;;;5093046;28;20446;-71
2022/07/11 13:37:21;;;;;;;19.77;18.83;;;;;;;;;;5093010;28;20447;-71
2022/07/11 13:39:50;;;;;;;19.93;19.03;;;;;;;;;;5092700;28;20494;-71
2022/07/11 13:42:17;;;;;;;20.10;19.10;;;;;;;;;;5092996;28;20439;-72
2022/07/11 13:44:45;;;;;;;19.13;18.17;;;;;;;;;;5092732;28;20445;-71
2022/07/11 13:47:13;;;;;;;19.17;18.27;;;;;;;;;;5092924;28;20454;-72
2022/07/11 13:49:41;;;;;;;19.33;18.43;;;;;;;;;;5092537;28;20896;-71
2022/07/11 13:52:11;;;;;;;18.90;18.00;;;;;;;;;;5092665;28;20440;-71
2022/07/11 13:54:38;;;;;;;19.47;18.57;;;;;;;;;;5092439;28;20452;-71
2022/07/11 13:57:08;;;;;;;18.80;18.00;;;;;;;;;;5089347;28;20440;-71
2022/07/11 13:59:36;;;;;;;18.40;17.60;;;;;;;;;;5082006;28;20536;-71
2022/07/11 14:02:04;;;;;;;18.73;17.93;;;;;;;;;;5072162;28;20451;-73
2022/07/11 14:04:31;;;;;;;18.47;17.63;;;;;;;;;;5072535;28;20423;-72
2022/07/11 14:06:59;;;;;;;19.00;18.20;;;;;;;;;;5072352;28;20499;-73
2022/07/11 14:09:27;;;;;;;19.70;18.80;;;;;;;;;;5072539;28;20786;-71
2022/07/11 14:11:57;;;;;;;19.33;18.20;;;;;;;;;;5080318;28;20418;-72
2022/07/11 14:14:26;;;;;;;19.67;18.47;;;;;;;;;;5092724;28;20830;-74
2022/07/11 14:16:53;;;;;;;19.40;18.50;;;;;;;;;;5095234;28;20440;-72
2022/07/11 14:19:21;;;;;;;19.37;18.47;;;;;;;;;;5095813;28;20919;-74
2022/07/11 14:21:48;;;;;;;18.87;17.90;;;;;;;;;;5096694;28;20440;-78
2022/07/11 14:24:15;;;;;;;19.90;18.90;;;;;;;;;;5096139;28;20421;-75
2022/07/11 14:26:43;;;;;;;19.73;18.73;;;;;;;;;;5095753;28;20432;-76
2022/07/11 14:29:10;;;;;;;19.27;18.37;;;;;;;;;;5096118;28;20832;-75
2022/07/11 14:31:39;;;;;;;21.17;19.90;;;;;;;;;;5096328;28;20446;-74
2022/07/11 14:34:07;;;;;;;19.57;18.57;;;;;;;;;;5096308;28;20442;-75
2022/07/11 14:36:34;;;;;;;19.83;18.87;;;;;;;;;;5096517;28;20443;-75
2022/07/11 14:39:01;;;;;;;20.83;19.83;;;;;;;;;;5095958;28;20490;-76
2022/07/11 14:41:29;;;;;;;20.67;19.67;;;;;;;;;;5096166;28;20545;-76
2022/07/11 14:43:57;;;;;;;20.13;19.03;;;;;;;;;;5096203;28;20426;-75
2022/07/11 14:46:24;;;;;;;21.60;20.50;;;;;;;;;;5095801;28;20524;-74